Ceuta, Spain
Current Conditions -  °F | °C
As of 11:50 AM on Friday 31 Oct 2014 (Local Time) from LXGB Reporting Station
Broken Clouds Broken Clouds  
Wind Chill: 70°   Ceiling: 2700
Heat Index: 70°   Visibility: 6mi
Dew Point: 63°   Wind: 15mph
Humidity: 78%   Direction: 70°ENE
Pressure: 30.21"   Gusts: NA
Location:  35.89°N, 5.32°W
Report Text: LXGB 311050Z 07013KT 9999 FEW013 BKN027 21/17 Q1023 NOSIG
Loading
Personal Weather Stations






























Interactive Weather Map New forecast layout! Learn more

10-Day Weather Forecast

Advertisements
Track Severe Weather on mobile